sensor_id;sensor_type;location;lat;lon;timestamp;pressure;altitude;pressure_sealevel;temperature;humidity
68525;BME280;55524;51.380;13.372;2023-02-03T00:00:19;101330.16;;;2.32;100.00
68525;BME280;55524;51.380;13.372;2023-02-03T00:02:45;101324.94;;;2.31;100.00
68525;BME280;55524;51.380;13.372;2023-02-03T00:05:14;101317.19;;;2.38;100.00
68525;BME280;55524;51.380;13.372;2023-02-03T00:07:40;101326.69;;;2.33;100.00
68525;BME280;55524;51.380;13.372;2023-02-03T00:10:09;101316.25;;;2.32;100.00
68525;BME280;55524;51.380;13.372;2023-02-03T00:12:36;101321.50;;;2.36;100.00
68525;BME280;55524;51.380;13.372;2023-02-03T00:15:02;101323.19;;;2.33;100.00
68525;BME280;55524;51.380;13.372;2023-02-03T00:17:29;101317.16;;;2.34;100.00
68525;BME280;55524;51.380;13.372;2023-02-03T00:19:55;101309.28;;;2.32;100.00
68525;BME280;55524;51.380;13.372;2023-02-03T00:22:21;101305.81;;;2.32;100.00
68525;BME280;55524;51.380;13.372;2023-02-03T00:24:48;101296.22;;;2.26;100.00
68525;BME280;55524;51.380;13.372;2023-02-03T00:27:14;101290.09;;;2.26;100.00
68525;BME280;55524;51.380;13.372;2023-02-03T00:29:41;101293.59;;;2.26;100.00
68525;BME280;55524;51.380;13.372;2023-02-03T00:32:07;101274.44;;;2.26;100.00
68525;BME280;55524;51.380;13.372;2023-02-03T00:34:33;101270.97;;;2.25;100.00
68525;BME280;55524;51.380;13.372;2023-02-03T00:37:00;101264.88;;;2.23;100.00
68525;BME280;55524;51.380;13.372;2023-02-03T00:39:27;101261.44;;;2.27;100.00
68525;BME280;55524;51.380;13.372;2023-02-03T00:41:53;101261.41;;;2.26;100.00
68525;BME280;55524;51.380;13.372;2023-02-03T00:44:19;101254.41;;;2.21;100.00
68525;BME280;55524;51.380;13.372;2023-02-03T00:46:45;101256.16;;;2.19;100.00
68525;BME280;55524;51.380;13.372;2023-02-03T00:49:12;101251.81;;;2.21;100.00
68525;BME280;55524;51.380;13.372;2023-02-03T00:51:38;101244.88;;;2.22;100.00
68525;BME280;55524;51.380;13.372;2023-02-03T00:54:04;101248.31;;;2.19;100.00
68525;BME280;55524;51.380;13.372;2023-02-03T00:56:30;101241.34;;;2.17;100.00
68525;BME280;55524;51.380;13.372;2023-02-03T00:58:57;101242.19;;;2.16;100.00
68525;BME280;55524;51.380;13.372;2023-02-03T01:01:23;101230.03;;;2.16;100.00
68525;BME280;55524;51.380;13.372;2023-02-03T01:03:49;101220.44;;;2.12;100.00
68525;BME280;55524;51.380;13.372;2023-02-03T01:06:18;101217.84;;;2.11;100.00
68525;BME280;55524;51.380;13.372;2023-02-03T01:08:46;101202.16;;;2.09;100.00
68525;BME280;55524;51.380;13.372;2023-02-03T01:11:24;101201.25;;;2.06;100.00
68525;BME280;55524;51.380;13.372;2023-02-03T01:13:56;101200.44;;;2.11;100.00
68525;BME280;55524;51.380;13.372;2023-02-03T01:16:26;101194.34;;;2.06;100.00
68525;BME280;55524;51.380;13.372;2023-02-03T01:18:54;101183.84;;;2.02;100.00
68525;BME280;55524;51.380;13.372;2023-02-03T01:21:23;101181.22;;;2.02;100.00
68525;BME280;55524;51.380;13.372;2023-02-03T01:23:51;101170.81;;;2.00;100.00
68525;BME280;55524;51.380;13.372;2023-02-03T01:26:19;101160.38;;;2.00;100.00
68525;BME280;55524;51.380;13.372;2023-02-03T01:28:57;101160.38;;;2.02;100.00
68525;BME280;55524;51.380;13.372;2023-02-03T01:31:30;101156.00;;;1.96;100.00
68525;BME280;55524;51.380;13.372;2023-02-03T01:33:57;101155.09;;;1.92;100.00
68525;BME280;55524;51.380;13.372;2023-02-03T01:36:25;101155.97;;;1.93;100.00
68525;BME280;55524;51.380;13.372;2023-02-03T01:38:52;101151.63;;;1.93;100.00
68525;BME280;55524;51.380;13.372;2023-02-03T01:41:24;101158.53;;;1.90;100.00
68525;BME280;55524;51.380;13.372;2023-02-03T01:43:53;101140.28;;;1.90;100.00
68525;BME280;55524;51.380;13.372;2023-02-03T01:46:36;101146.38;;;1.87;100.00
68525;BME280;55524;51.380;13.372;2023-02-03T01:49:22;101127.25;;;1.88;100.00
68525;BME280;55524;51.380;13.372;2023-02-03T01:51:49;101128.13;;;1.87;100.00
68525;BME280;55524;51.380;13.372;2023-02-03T01:54:30;101117.72;;;1.92;100.00
68525;BME280;55524;51.380;13.372;2023-02-03T01:57:09;101109.94;;;1.95;100.00
68525;BME280;55524;51.380;13.372;2023-02-03T01:59:37;101096.91;;;1.95;100.00
68525;BME280;55524;51.380;13.372;2023-02-03T02:02:04;101085.63;;;1.96;100.00
68525;BME280;55524;51.380;13.372;2023-02-03T02:07:16;101084.69;;;1.88;100.00
68525;BME280;55524;51.380;13.372;2023-02-03T02:09:43;101076.91;;;1.92;100.00
68525;BME280;55524;51.380;13.372;2023-02-03T02:12:13;101079.47;;;1.89;100.00
68525;BME280;55524;51.380;13.372;2023-02-03T02:14:40;101077.78;;;1.93;100.00
68525;BME280;55524;51.380;13.372;2023-02-03T02:25:53;101033.44;;;1.88;100.00
68525;BME280;55524;51.380;13.372;2023-02-03T02:28:32;101026.53;;;1.90;100.00
68525;BME280;55524;51.380;13.372;2023-02-03T02:37:06;101003.03;;;1.89;100.00
68525;BME280;55524;51.380;13.372;2023-02-03T02:45:11;100986.56;;;1.91;100.00
68525;BME280;55524;51.380;13.372;2023-02-03T02:47:40;100970.06;;;1.91;100.00
68525;BME280;55524;51.380;13.372;2023-02-03T02:50:19;100951.00;;;2.00;100.00
68525;BME280;55524;51.380;13.372;2023-02-03T02:52:48;100956.22;;;2.01;100.00
68525;BME280;55524;51.380;13.372;2023-02-03T02:55:36;100939.72;;;1.99;100.00
68525;BME280;55524;51.380;13.372;2023-02-03T02:58:08;100936.31;;;2.11;100.00
68525;BME280;55524;51.380;13.372;2023-02-03T03:00:37;100929.34;;;2.13;100.00
68525;BME280;55524;51.380;13.372;2023-02-03T03:03:22;100929.41;;;2.25;100.00
68525;BME280;55524;51.380;13.372;2023-02-03T03:05:54;100928.53;;;2.29;100.00
68525;BME280;55524;51.380;13.372;2023-02-03T03:08:33;100925.13;;;2.38;100.00
68525;BME280;55524;51.380;13.372;2023-02-03T03:11:02;100919.94;;;2.45;100.00
68525;BME280;55524;51.380;13.372;2023-02-03T03:13:33;100913.88;;;2.50;100.00
68525;BME280;55524;51.380;13.372;2023-02-03T03:16:04;100926.97;;;2.71;100.00
68525;BME280;55524;51.380;13.372;2023-02-03T03:21:11;100911.34;;;2.94;100.00
68525;BME280;55524;51.380;13.372;2023-02-03T03:23:40;100905.28;;;3.01;100.00
68525;BME280;55524;51.380;13.372;2023-02-03T03:28:57;100893.97;;;3.17;100.00
68525;BME280;55524;51.380;13.372;2023-02-03T03:31:26;100887.84;;;3.25;100.00
68525;BME280;55524;51.380;13.372;2023-02-03T03:33:53;100896.56;;;3.31;100.00
68525;BME280;55524;51.380;13.372;2023-02-03T03:36:27;100896.56;;;3.37;100.00
68525;BME280;55524;51.380;13.372;2023-02-03T03:39:02;100887.84;;;3.43;100.00
68525;BME280;55524;51.380;13.372;2023-02-03T03:41:49;100886.97;;;3.47;100.00
68525;BME280;55524;51.380;13.372;2023-02-03T03:44:18;100881.72;;;3.59;100.00
68525;BME280;55524;51.380;13.372;2023-02-03T03:47:02;100867.78;;;3.63;100.00
68525;BME280;55524;51.380;13.372;2023-02-03T03:49:33;100870.38;;;3.76;100.00
68525;BME280;55524;51.380;13.372;2023-02-03T03:52:07;100836.38;;;3.82;100.00
68525;BME280;55524;51.380;13.372;2023-02-03T03:54:36;100830.25;;;3.90;100.00
68525;BME280;55524;51.380;13.372;2023-02-03T03:57:13;100827.59;;;3.98;100.00
68525;BME280;55524;51.380;13.372;2023-02-03T03:59:48;100840.63;;;4.09;100.00
68525;BME280;55524;51.380;13.372;2023-02-03T04:02:16;100838.84;;;4.18;100.00
68525;BME280;55524;51.380;13.372;2023-02-03T04:04:44;100831.84;;;4.19;100.00
68525;BME280;55524;51.380;13.372;2023-02-03T04:07:14;100814.31;;;4.35;100.00
68525;BME280;55524;51.380;13.372;2023-02-03T04:09:40;100825.63;;;4.41;100.00
68525;BME280;55524;51.380;13.372;2023-02-03T04:12:28;100819.53;;;4.39;100.00
68525;BME280;55524;51.380;13.372;2023-02-03T04:14:54;100816.00;;;4.48;100.00
68525;BME280;55524;51.380;13.372;2023-02-03T04:17:20;100824.72;;;4.49;100.00
68525;BME280;55524;51.380;13.372;2023-02-03T04:19:47;100802.88;;;4.51;100.00
68525;BME280;55524;51.380;13.372;2023-02-03T04:22:13;100801.13;;;4.56;100.00
68525;BME280;55524;51.380;13.372;2023-02-03T04:24:40;100814.16;;;4.61;100.00
68525;BME280;55524;51.380;13.372;2023-02-03T04:27:06;100825.47;;;4.63;100.00
68525;BME280;55524;51.380;13.372;2023-02-03T04:29:32;100820.25;;;4.67;100.00
68525;BME280;55524;51.380;13.372;2023-02-03T04:31:58;100829.78;;;4.76;100.00
68525;BME280;55524;51.380;13.372;2023-02-03T04:34:25;100826.28;;;4.74;100.00
68525;BME280;55524;51.380;13.372;2023-02-03T04:36:51;100818.41;;;4.80;100.00
68525;BME280;55524;51.380;13.372;2023-02-03T04:39:17;100819.19;;;4.88;100.00
68525;BME280;55524;51.380;13.372;2023-02-03T04:41:43;100817.41;;;4.95;100.00
68525;BME280;55524;51.380;13.372;2023-02-03T04:44:10;100824.34;;;5.01;100.00
68525;BME280;55524;51.380;13.372;2023-02-03T04:46:36;100833.03;;;5.04;100.00
68525;BME280;55524;51.380;13.372;2023-02-03T04:49:03;100826.00;;;5.09;100.00
68525;BME280;55524;51.380;13.372;2023-02-03T04:51:29;100819.00;;;5.11;100.00
68525;BME280;55524;51.380;13.372;2023-02-03T04:53:55;100802.38;;;5.15;100.00
68525;BME280;55524;51.380;13.372;2023-02-03T04:56:21;100793.59;;;5.23;100.00
68525;BME280;55524;51.380;13.372;2023-02-03T04:58:48;100799.59;;;5.32;100.00
68525;BME280;55524;51.380;13.372;2023-02-03T05:01:14;100790.81;;;5.36;100.00
68525;BME280;55524;51.380;13.372;2023-02-03T05:03:40;100783.75;;;5.41;100.00
68525;BME280;55524;51.380;13.372;2023-02-03T05:06:06;100769.78;;;5.44;100.00
68525;BME280;55524;51.380;13.372;2023-02-03T05:08:33;100780.28;;;5.42;100.00
68525;BME280;55524;51.380;13.372;2023-02-03T05:10:59;100763.63;;;5.47;100.00
68525;BME280;55524;51.380;13.372;2023-02-03T05:13:25;100758.41;;;5.45;100.00
68525;BME280;55524;51.380;13.372;2023-02-03T05:15:52;100759.25;;;5.46;100.00
68525;BME280;55524;51.380;13.372;2023-02-03T05:18:18;100745.31;;;5.42;100.00
68525;BME280;55524;51.380;13.372;2023-02-03T05:20:44;100740.91;;;5.47;100.00
68525;BME280;55524;51.380;13.372;2023-02-03T05:23:10;100735.69;;;5.47;100.00
68525;BME280;55524;51.380;13.372;2023-02-03T05:25:37;100734.81;;;5.45;100.00
68525;BME280;55524;51.380;13.372;2023-02-03T05:28:03;100721.66;;;5.51;100.00
68525;BME280;55524;51.380;13.372;2023-02-03T05:30:29;100728.63;;;5.52;100.00
68525;BME280;55524;51.380;13.372;2023-02-03T05:32:56;100725.97;;;5.54;100.00
68525;BME280;55524;51.380;13.372;2023-02-03T05:35:22;100750.41;;;5.56;100.00
68525;BME280;55524;51.380;13.372;2023-02-03T05:37:49;100735.50;;;5.62;100.00
68525;BME280;55524;51.380;13.372;2023-02-03T05:40:15;100745.97;;;5.62;100.00
68525;BME280;55524;51.380;13.372;2023-02-03T05:43:00;100743.38;;;5.58;100.00
68525;BME280;55524;51.380;13.372;2023-02-03T05:45:26;100744.22;;;5.61;100.00
68525;BME280;55524;51.380;13.372;2023-02-03T05:47:53;100738.06;;;5.65;100.00
68525;BME280;55524;51.380;13.372;2023-02-03T05:50:19;100730.13;;;5.70;100.00
68525;BME280;55524;51.380;13.372;2023-02-03T05:52:48;100721.41;;;5.70;100.00
68525;BME280;55524;51.380;13.372;2023-02-03T05:55:14;100720.53;;;5.69;100.00
68525;BME280;55524;51.380;13.372;2023-02-03T05:57:41;100726.53;;;5.77;100.00
68525;BME280;55524;51.380;13.372;2023-02-03T06:00:08;100717.78;;;5.80;100.00
68525;BME280;55524;51.380;13.372;2023-02-03T06:02:34;100697.59;;;5.85;100.00
68525;BME280;55524;51.380;13.372;2023-02-03T06:05:00;100692.38;;;5.83;100.00
68525;BME280;55524;51.380;13.372;2023-02-03T06:07:27;100694.97;;;5.85;100.00
68525;BME280;55524;51.380;13.372;2023-02-03T06:09:53;100696.66;;;5.90;100.00
68525;BME280;55524;51.380;13.372;2023-02-03T06:12:19;100692.28;;;5.93;100.00
68525;BME280;55524;51.380;13.372;2023-02-03T06:14:45;100704.50;;;5.94;100.00
68525;BME280;55524;51.380;13.372;2023-02-03T06:17:14;100696.59;;;5.98;100.00
68525;BME280;55524;51.380;13.372;2023-02-03T06:19:40;100686.97;;;5.97;100.00
68525;BME280;55524;51.380;13.372;2023-02-03T06:22:07;100685.16;;;6.01;100.00
68525;BME280;55524;51.380;13.372;2023-02-03T06:24:33;100685.03;;;6.08;100.00
68525;BME280;55524;51.380;13.372;2023-02-03T06:26:59;100687.63;;;6.11;100.00
68525;BME280;55524;51.380;13.372;2023-02-03T06:29:25;100677.97;;;6.13;100.00
68525;BME280;55524;51.380;13.372;2023-02-03T06:31:52;100666.53;;;6.19;100.00
68525;BME280;55524;51.380;13.372;2023-02-03T06:34:18;100663.03;;;6.19;100.00
68525;BME280;55524;51.380;13.372;2023-02-03T06:36:44;100649.81;;;6.25;100.00
68525;BME280;55524;51.380;13.372;2023-02-03T06:39:10;100645.38;;;6.28;100.00
68525;BME280;55524;51.380;13.372;2023-02-03T06:41:37;100648.78;;;6.35;100.00
68525;BME280;55524;51.380;13.372;2023-02-03T06:44:03;100639.94;;;6.39;100.00
68525;BME280;55524;51.380;13.372;2023-02-03T06:46:29;100640.00;;;6.36;100.00
68525;BME280;55524;51.380;13.372;2023-02-03T06:48:56;100623.34;;;6.38;100.00
68525;BME280;55524;51.380;13.372;2023-02-03T06:51:22;100622.41;;;6.41;100.00
68525;BME280;55524;51.380;13.372;2023-02-03T06:53:50;100628.56;;;6.40;100.00
68525;BME280;55524;51.380;13.372;2023-02-03T06:56:16;100620.69;;;6.40;100.00
68525;BME280;55524;51.380;13.372;2023-02-03T06:58:42;100616.19;;;6.45;100.00
68525;BME280;55524;51.380;13.372;2023-02-03T07:01:09;100615.16;;;6.55;100.00
68525;BME280;55524;51.380;13.372;2023-02-03T07:03:35;100607.34;;;6.52;100.00
68525;BME280;55524;51.380;13.372;2023-02-03T07:06:02;100616.13;;;6.51;100.00
68525;BME280;55524;51.380;13.372;2023-02-03T07:08:28;100612.50;;;6.57;100.00
68525;BME280;55524;51.380;13.372;2023-02-03T07:10:55;100612.59;;;6.52;100.00
68525;BME280;55524;51.380;13.372;2023-02-03T07:13:21;100604.72;;;6.52;100.00
68525;BME280;55524;51.380;13.372;2023-02-03T07:15:47;100621.28;;;6.56;100.00
68525;BME280;55524;51.380;13.372;2023-02-03T07:18:13;100615.25;;;6.51;100.00
68525;BME280;55524;51.380;13.372;2023-02-03T07:20:41;100617.84;;;6.52;100.00
68525;BME280;55524;51.380;13.372;2023-02-03T07:23:07;100603.81;;;6.55;100.00
68525;BME280;55524;51.380;13.372;2023-02-03T07:25:34;100607.19;;;6.60;100.00
68525;BME280;55524;51.380;13.372;2023-02-03T07:28:00;100595.84;;;6.59;100.00
68525;BME280;55524;51.380;13.372;2023-02-03T07:30:26;100595.78;;;6.62;100.00
68525;BME280;55524;51.380;13.372;2023-02-03T07:32:53;100601.84;;;6.66;100.00
68525;BME280;55524;51.380;13.372;2023-02-03T07:35:20;100597.53;;;6.62;100.00
68525;BME280;55524;51.380;13.372;2023-02-03T07:37:46;100592.25;;;6.63;100.00
68525;BME280;55524;51.380;13.372;2023-02-03T07:40:13;100604.47;;;6.64;100.00
68525;BME280;55524;51.380;13.372;2023-02-03T07:42:47;100590.53;;;6.62;100.00
68525;BME280;55524;51.380;13.372;2023-02-03T07:45:15;100596.59;;;6.66;100.00
68525;BME280;55524;51.380;13.372;2023-02-03T07:47:43;100588.72;;;6.66;100.00
68525;BME280;55524;51.380;13.372;2023-02-03T07:50:10;100608.78;;;6.69;100.00
68525;BME280;55524;51.380;13.372;2023-02-03T07:52:37;100610.44;;;6.74;100.00
68525;BME280;55524;51.380;13.372;2023-02-03T07:55:04;100605.19;;;6.73;100.00
68525;BME280;55524;51.380;13.372;2023-02-03T07:57:31;100587.72;;;6.72;100.00
68525;BME280;55524;51.380;13.372;2023-02-03T07:59:57;100593.63;;;6.83;100.00
68525;BME280;55524;51.380;13.372;2023-02-03T08:02:23;100591.91;;;6.82;100.00
68525;BME280;55524;51.380;13.372;2023-02-03T08:04:49;100590.16;;;6.81;100.00
68525;BME280;55524;51.380;13.372;2023-02-03T08:07:16;100588.63;;;6.71;100.00
68525;BME280;55524;51.380;13.372;2023-02-03T08:09:42;100582.66;;;6.61;100.00
68525;BME280;55524;51.380;13.372;2023-02-03T08:12:08;100596.78;;;6.55;100.00
68525;BME280;55524;51.380;13.372;2023-02-03T08:14:35;100598.66;;;6.49;100.00
68525;BME280;55524;51.380;13.372;2023-02-03T08:17:01;100596.16;;;6.41;100.00
68525;BME280;55524;51.380;13.372;2023-02-03T08:19:27;100586.69;;;6.34;100.00
68525;BME280;55524;51.380;13.372;2023-02-03T08:21:54;100576.22;;;6.31;100.00
68525;BME280;55524;51.380;13.372;2023-02-03T08:24:20;100557.00;;;6.29;100.00
68525;BME280;55524;51.380;13.372;2023-02-03T08:26:46;100551.81;;;6.27;100.00
68525;BME280;55524;51.380;13.372;2023-02-03T08:29:12;100558.91;;;6.22;100.00
68525;BME280;55524;51.380;13.372;2023-02-03T08:31:41;100554.44;;;6.27;100.00
68525;BME280;55524;51.380;13.372;2023-02-03T08:34:07;100546.69;;;6.20;100.00
68525;BME280;55524;51.380;13.372;2023-02-03T08:36:34;100551.03;;;6.22;100.00
68525;BME280;55524;51.380;13.372;2023-02-03T08:39:02;100547.56;;;6.20;100.00
68525;BME280;55524;51.380;13.372;2023-02-03T08:41:28;100552.03;;;6.13;100.00
68525;BME280;55524;51.380;13.372;2023-02-03T08:43:54;100552.88;;;6.15;100.00
68525;BME280;55524;51.380;13.372;2023-02-03T08:46:20;100547.69;;;6.14;100.00
68525;BME280;55524;51.380;13.372;2023-02-03T08:48:47;100536.28;;;6.13;100.00
68525;BME280;55524;51.380;13.372;2023-02-03T08:51:15;100533.63;;;6.16;100.00
68525;BME280;55524;51.380;13.372;2023-02-03T08:53:42;100528.41;;;6.15;100.00
68525;BME280;55524;51.380;13.372;2023-02-03T08:56:10;100515.38;;;6.09;100.00
68525;BME280;55524;51.380;13.372;2023-02-03T08:58:37;100507.50;;;6.09;100.00
68525;BME280;55524;51.380;13.372;2023-02-03T09:01:12;100511.00;;;6.09;100.00
68525;BME280;55524;51.380;13.372;2023-02-03T09:03:39;100504.06;;;6.07;100.00
68525;BME280;55524;51.380;13.372;2023-02-03T09:06:06;100508.47;;;6.06;100.00
68525;BME280;55524;51.380;13.372;2023-02-03T09:08:34;100504.03;;;6.08;100.00
68525;BME280;55524;51.380;13.372;2023-02-03T09:11:00;100506.56;;;6.14;100.00
68525;BME280;55524;51.380;13.372;2023-02-03T09:13:26;100490.78;;;6.16;100.00
68525;BME280;55524;51.380;13.372;2023-02-03T09:15:53;100494.13;;;6.24;100.00
68525;BME280;55524;51.380;13.372;2023-02-03T09:18:19;100490.44;;;6.33;100.00
68525;BME280;55524;51.380;13.372;2023-02-03T09:20:45;100482.56;;;6.33;100.00
68525;BME280;55524;51.380;13.372;2023-02-03T09:23:11;100486.84;;;6.38;100.00
68525;BME280;55524;51.380;13.372;2023-02-03T09:25:38;100456.16;;;6.42;100.00
68525;BME280;55524;51.380;13.372;2023-02-03T09:28:04;100454.50;;;6.38;100.00
68525;BME280;55524;51.380;13.372;2023-02-03T09:30:30;100431.78;;;6.35;100.00
68525;BME280;55524;51.380;13.372;2023-02-03T09:32:56;100433.56;;;6.35;100.00
68525;BME280;55524;51.380;13.372;2023-02-03T09:35:23;100429.16;;;6.35;100.00
68525;BME280;55524;51.380;13.372;2023-02-03T09:37:52;100422.25;;;6.31;100.00
68525;BME280;55524;51.380;13.372;2023-02-03T09:40:23;100413.47;;;6.32;100.00
68525;BME280;55524;51.380;13.372;2023-02-03T09:45:31;100405.34;;;6.46;100.00
68525;BME280;55524;51.380;13.372;2023-02-03T09:48:05;100412.16;;;6.55;100.00
68525;BME280;55524;51.380;13.372;2023-02-03T09:50:36;100410.97;;;6.68;100.00
68525;BME280;55524;51.380;13.372;2023-02-03T09:53:27;100406.47;;;6.75;100.00
68525;BME280;55524;51.380;13.372;2023-02-03T09:55:55;100397.38;;;6.89;100.00
68525;BME280;55524;51.380;13.372;2023-02-03T09:58:22;100392.88;;;6.95;100.00
68525;BME280;55524;51.380;13.372;2023-02-03T10:00:58;100385.91;;;6.94;100.00
68525;BME280;55524;51.380;13.372;2023-02-03T10:03:38;100368.44;;;6.91;100.00
68525;BME280;55524;51.380;13.372;2023-02-03T10:19:59;100352.13;;;6.77;100.00
68525;BME280;55524;51.380;13.372;2023-02-03T10:22:29;100351.31;;;6.75;100.00
68525;BME280;55524;51.380;13.372;2023-02-03T10:25:02;100358.34;;;6.74;100.00
68525;BME280;55524;51.380;13.372;2023-02-03T10:27:31;100337.38;;;6.71;100.00
68525;BME280;55524;51.380;13.372;2023-02-03T10:32:40;100321.81;;;6.63;100.00
68525;BME280;55524;51.380;13.372;2023-02-03T10:35:11;100327.91;;;6.64;100.00
68525;BME280;55524;51.380;13.372;2023-02-03T10:37:49;100328.66;;;6.69;100.00
68525;BME280;55524;51.380;13.372;2023-02-03T10:40:17;100322.56;;;6.69;100.00
68525;BME280;55524;51.380;13.372;2023-02-03T10:42:45;100330.41;;;6.70;100.00
68525;BME280;55524;51.380;13.372;2023-02-03T10:45:35;100318.16;;;6.71;100.00
68525;BME280;55524;51.380;13.372;2023-02-03T10:48:03;100311.88;;;6.76;100.00
68525;BME280;55524;51.380;13.372;2023-02-03T10:50:30;100294.34;;;6.77;100.00
68525;BME280;55524;51.380;13.372;2023-02-03T10:55:47;100295.13;;;6.80;100.00
68525;BME280;55524;51.380;13.372;2023-02-03T10:58:26;100296.00;;;6.81;100.00
68525;BME280;55524;51.380;13.372;2023-02-03T11:03:39;100292.31;;;6.88;100.00
68525;BME280;55524;51.380;13.372;2023-02-03T11:06:15;100267.81;;;6.87;100.00
68525;BME280;55524;51.380;13.372;2023-02-03T11:08:47;100292.38;;;6.86;100.00
68525;BME280;55524;51.380;13.372;2023-02-03T11:11:48;100282.72;;;6.87;100.00
68525;BME280;55524;51.380;13.372;2023-02-03T11:16:35;100296.91;;;6.80;100.00
68525;BME280;55524;51.380;13.372;2023-02-03T11:19:23;100293.47;;;6.78;100.00
68525;BME280;55524;51.380;13.372;2023-02-03T11:21:53;100279.47;;;6.77;100.00
68525;BME280;55524;51.380;13.372;2023-02-03T11:26:54;100271.69;;;6.73;100.00
68525;BME280;55524;51.380;13.372;2023-02-03T11:29:33;100275.94;;;6.78;100.00
68525;BME280;55524;51.380;13.372;2023-02-03T11:32:05;100267.22;;;6.76;100.00
68525;BME280;55524;51.380;13.372;2023-02-03T11:34:48;100267.41;;;6.70;100.00
68525;BME280;55524;51.380;13.372;2023-02-03T11:37:37;100240.28;;;6.70;100.00
68525;BME280;55524;51.380;13.372;2023-02-03T11:42:35;100184.16;;;6.72;100.00
68525;BME280;55524;51.380;13.372;2023-02-03T11:53:53;100161.84;;;6.90;100.00
68525;BME280;55524;51.380;13.372;2023-02-03T12:05:40;100201.69;;;7.06;100.00
68525;BME280;55524;51.380;13.372;2023-02-03T12:21:59;100178.50;;;7.20;100.00
68525;BME280;55524;51.380;13.372;2023-02-03T12:24:58;100171.97;;;7.35;100.00
68525;BME280;55524;51.380;13.372;2023-02-03T12:32:53;100212.22;;;7.37;100.00
68525;BME280;55524;51.380;13.372;2023-02-03T12:35:50;100213.25;;;7.31;100.00
68525;BME280;55524;51.380;13.372;2023-02-03T12:54:41;100282.28;;;7.05;100.00
68525;BME280;55524;51.380;13.372;2023-02-03T12:57:37;100288.59;;;6.98;100.00
68525;BME280;55524;51.380;13.372;2023-02-03T13:05:46;100309.19;;;6.79;100.00
68525;BME280;55524;51.380;13.372;2023-02-03T13:14:19;100314.97;;;6.94;100.00
68525;BME280;55524;51.380;13.372;2023-02-03T13:16:56;100322.06;;;6.90;100.00
68525;BME280;55524;51.380;13.372;2023-02-03T13:19:39;100326.03;;;7.06;100.00
68525;BME280;55524;51.380;13.372;2023-02-03T13:22:11;100331.13;;;7.12;100.00
68525;BME280;55524;51.380;13.372;2023-02-03T13:24:44;100327.56;;;7.15;100.00
68525;BME280;55524;51.380;13.372;2023-02-03T13:27:44;100327.72;;;7.43;99.12
68525;BME280;55524;51.380;13.372;2023-02-03T13:43:30;100325.78;;;7.17;89.29
68525;BME280;55524;51.380;13.372;2023-02-03T13:46:00;100334.44;;;7.21;87.91
68525;BME280;55524;51.380;13.372;2023-02-03T13:48:30;100373.03;;;7.19;89.34
68525;BME280;55524;51.380;13.372;2023-02-03T13:51:07;100325.47;;;7.28;85.62
68525;BME280;55524;51.380;13.372;2023-02-03T13:53:42;100345.88;;;7.18;88.66
68525;BME280;55524;51.380;13.372;2023-02-03T13:56:36;100351.94;;;7.22;86.56
68525;BME280;55524;51.380;13.372;2023-02-03T14:01:40;100338.03;;;7.17;86.05
68525;BME280;55524;51.380;13.372;2023-02-03T14:20:48;100324.88;;;6.81;84.40
68525;BME280;55524;51.380;13.372;2023-02-03T14:23:26;100301.25;;;6.81;83.35
68525;BME280;55524;51.380;13.372;2023-02-03T14:25:57;100332.75;;;6.81;82.55
68525;BME280;55524;51.380;13.372;2023-02-03T14:28:41;100323.81;;;6.89;80.45
68525;BME280;55524;51.380;13.372;2023-02-03T14:31:20;100312.47;;;6.89;78.06
68525;BME280;55524;51.380;13.372;2023-02-03T14:33:51;100330.97;;;6.83;78.76
68525;BME280;55524;51.380;13.372;2023-02-03T14:36:46;100334.34;;;6.88;77.05
68525;BME280;55524;51.380;13.372;2023-02-03T14:50:33;100425.56;;;5.47;96.81
68525;BME280;55524;51.380;13.372;2023-02-03T14:58:44;100433.03;;;5.14;100.00
68525;BME280;55524;51.380;13.372;2023-02-03T15:06:40;100428.47;;;5.28;98.21
68525;BME280;55524;51.380;13.372;2023-02-03T15:09:30;100425.72;;;5.36;97.35
68525;BME280;55524;51.380;13.372;2023-02-03T15:11:59;100420.34;;;5.43;95.80
68525;BME280;55524;51.380;13.372;2023-02-03T15:14:28;100419.13;;;5.64;93.45
68525;BME280;55524;51.380;13.372;2023-02-03T15:16:59;100405.56;;;5.89;90.36
68525;BME280;55524;51.380;13.372;2023-02-03T15:19:30;100409.88;;;5.95;89.72
68525;BME280;55524;51.380;13.372;2023-02-03T15:21:57;100416.78;;;5.97;89.92
68525;BME280;55524;51.380;13.372;2023-02-03T15:24:23;100409.44;;;6.16;87.30
68525;BME280;55524;51.380;13.372;2023-02-03T15:26:55;100411.97;;;6.22;87.23
68525;BME280;55524;51.380;13.372;2023-02-03T15:29:32;100404.00;;;6.27;85.85
68525;BME280;55524;51.380;13.372;2023-02-03T15:32:11;100406.41;;;6.36;84.62
68525;BME280;55524;51.380;13.372;2023-02-03T15:34:50;100410.69;;;6.42;83.55
68525;BME280;55524;51.380;13.372;2023-02-03T15:40:18;100402.78;;;6.43;82.55
68525;BME280;55524;51.380;13.372;2023-02-03T15:42:56;100396.19;;;6.64;79.90
68525;BME280;55524;51.380;13.372;2023-02-03T15:48:00;100401.31;;;6.69;78.75
68525;BME280;55524;51.380;13.372;2023-02-03T15:50:32;100404.59;;;6.80;77.49
68525;BME280;55524;51.380;13.372;2023-02-03T15:53:13;100412.69;;;6.71;78.63
68525;BME280;55524;51.380;13.372;2023-02-03T15:55:44;100426.66;;;6.71;79.18
68525;BME280;55524;51.380;13.372;2023-02-03T15:58:24;100433.53;;;6.78;79.32
68525;BME280;55524;51.380;13.372;2023-02-03T16:00:54;100457.44;;;6.64;80.76